AMX611 MMMT-MMMX
Flight info
| Callsign | AMX611 |
|---|---|
| Flight time | 0h 49m |
| Altitude | 36000 |
| Route | MTT3A MTT UJ64 XORUV UT112 LARLO LARLO4A |
| Aircraft | B738/M-SDE2E3FGHIRWXY/LB1V1 |
Departure
| Time | 2026-04-19 22:55 |
|---|---|
| Airport | Minatitlán/Coatzacoalcos International Airport (MMMT) |
Arrival
| Time | 2026-04-19 23:44 |
|---|---|
| Airport | Mexico City Benito Juárez International Airport (MMMX) |
| Time | Latitude | Longitude | Altitude | Speed | Heading |
|---|---|---|---|---|---|
| 2026-04-19 22:43 | 18.10275 | -94.57788 | 54 ft | 0 kts | 107° |
| 2026-04-19 22:46 | 18.10277 | -94.57793 | 54 ft | 2 kts | 107° |
| 2026-04-19 22:46 | 18.10282 | -94.57808 | 54 ft | 2 kts | 129° |
| 2026-04-19 22:47 | 18.10294 | -94.57819 | 53 ft | 2 kts | 150° |
| 2026-04-19 22:47 | 18.10308 | -94.57824 | 53 ft | 2 kts | 173° |
| 2026-04-19 22:47 | 18.10322 | -94.57823 | 53 ft | 1 kts | 194° |
| 2026-04-19 22:47 | 18.10328 | -94.57821 | 53 ft | 1 kts | 199° |
| 2026-04-19 22:48 | 18.10330 | -94.57820 | 53 ft | 0 kts | 198° |
| 2026-04-19 22:48 | 18.10329 | -94.57820 | 53 ft | 0 kts | 198° |
| 2026-04-19 22:50 | 18.10308 | -94.57828 | 53 ft | 6 kts | 198° |
| 2026-04-19 22:50 | 18.10267 | -94.57842 | 53 ft | 5 kts | 198° |
| 2026-04-19 22:50 | 18.10225 | -94.57861 | 54 ft | 7 kts | 220° |
| 2026-04-19 22:50 | 18.10195 | -94.57912 | 52 ft | 9 kts | 237° |
| 2026-04-19 22:51 | 18.10142 | -94.57977 | 50 ft | 13 kts | 227° |
| 2026-04-19 22:51 | 18.10005 | -94.58140 | 50 ft | 16 kts | 225° |
| 2026-04-19 22:51 | 18.09915 | -94.58203 | 51 ft | 16 kts | 200° |
| 2026-04-19 22:52 | 18.09781 | -94.58250 | 51 ft | 24 kts | 198° |
| 2026-04-19 22:52 | 18.09600 | -94.58312 | 49 ft | 26 kts | 198° |
| 2026-04-19 22:52 | 18.09487 | -94.58315 | 49 ft | 11 kts | 162° |
| 2026-04-19 22:52 | 18.09444 | -94.58336 | 49 ft | 5 kts | 265° |
| 2026-04-19 22:53 | 18.09455 | -94.58353 | 49 ft | 3 kts | 337° |
| 2026-04-19 22:53 | 18.09475 | -94.58355 | 49 ft | 2 kts | 11° |
| 2026-04-19 22:53 | 18.09480 | -94.58353 | 49 ft | 0 kts | 18° |
| 2026-04-19 22:54 | 18.09500 | -94.58346 | 49 ft | 17 kts | 17° |
| 2026-04-19 22:54 | 18.09894 | -94.58220 | 51 ft | 96 kts | 15° |
| 2026-04-19 22:54 | 18.10740 | -94.57907 | 46 ft | 159 kts | 14° |
| 2026-04-19 22:54 | 18.11867 | -94.57527 | 525 ft | 177 kts | 13° |
| 2026-04-19 22:55 | 18.13007 | -94.57197 | 1452 ft | 173 kts | 13° |
| 2026-04-19 22:55 | 18.14199 | -94.56872 | 1940 ft | 187 kts | 14° |
| 2026-04-19 22:55 | 18.15579 | -94.56544 | 2158 ft | 213 kts | 3° |
| 2026-04-19 22:55 | 18.17081 | -94.56854 | 2606 ft | 233 kts | 334° |
| 2026-04-19 22:56 | 18.18264 | -94.58018 | 3375 ft | 241 kts | 303° |
| 2026-04-19 22:56 | 18.18794 | -94.59720 | 3943 ft | 259 kts | 278° |
| 2026-04-19 22:56 | 18.18793 | -94.61584 | 4755 ft | 260 kts | 267° |
| 2026-04-19 22:56 | 18.18533 | -94.63539 | 5175 ft | 279 kts | 262° |
| 2026-04-19 22:57 | 18.18180 | -94.65604 | 5742 ft | 290 kts | 262° |
| 2026-04-19 22:57 | 18.17821 | -94.67672 | 6537 ft | 291 kts | 262° |
| 2026-04-19 22:57 | 18.17461 | -94.69777 | 7289 ft | 294 kts | 262° |
| 2026-04-19 22:57 | 18.17106 | -94.71865 | 8059 ft | 297 kts | 262° |
| 2026-04-19 22:58 | 18.16746 | -94.74007 | 8864 ft | 299 kts | 262° |
| 2026-04-19 22:58 | 18.16386 | -94.76157 | 9660 ft | 302 kts | 262° |
| 2026-04-19 22:58 | 18.16023 | -94.78333 | 10396 ft | 307 kts | 262° |
| 2026-04-19 22:58 | 18.15656 | -94.80560 | 11026 ft | 317 kts | 262° |
| 2026-04-19 22:59 | 18.15277 | -94.82918 | 11486 ft | 333 kts | 262° |
| 2026-04-19 22:59 | 18.15106 | -94.85388 | 11886 ft | 347 kts | 275° |
| 2026-04-19 22:59 | 18.15445 | -94.87905 | 12337 ft | 360 kts | 281° |
| 2026-04-19 22:59 | 18.15914 | -94.90569 | 12694 ft | 376 kts | 281° |
| 2026-04-19 23:00 | 18.16384 | -94.93323 | 13060 ft | 391 kts | 281° |
| 2026-04-19 23:00 | 18.16849 | -94.96133 | 13754 ft | 395 kts | 281° |
| 2026-04-19 23:00 | 18.17316 | -94.98998 | 14453 ft | 400 kts | 280° |
| 2026-04-19 23:00 | 18.17789 | -95.01907 | 15062 ft | 406 kts | 280° |
| 2026-04-19 23:01 | 18.18264 | -95.04826 | 15710 ft | 411 kts | 280° |
| 2026-04-19 23:01 | 18.18746 | -95.07784 | 16343 ft | 415 kts | 280° |
| 2026-04-19 23:01 | 18.19235 | -95.10780 | 16965 ft | 419 kts | 280° |
| 2026-04-19 23:01 | 18.19729 | -95.13796 | 17522 ft | 424 kts | 280° |
| 2026-04-19 23:02 | 18.20230 | -95.16857 | 18194 ft | 426 kts | 280° |
| 2026-04-19 23:02 | 18.20731 | -95.19925 | 18820 ft | 429 kts | 280° |
| 2026-04-19 23:02 | 18.21240 | -95.23045 | 19445 ft | 432 kts | 280° |
| 2026-04-19 23:02 | 18.21740 | -95.26122 | 20078 ft | 434 kts | 280° |
| 2026-04-19 23:03 | 18.22248 | -95.29252 | 20675 ft | 437 kts | 280° |
| 2026-04-19 23:03 | 18.22764 | -95.32426 | 21272 ft | 439 kts | 280° |
| 2026-04-19 23:03 | 18.23277 | -95.35580 | 21863 ft | 441 kts | 280° |
| 2026-04-19 23:03 | 18.23794 | -95.38753 | 22445 ft | 443 kts | 280° |
| 2026-04-19 23:04 | 18.24318 | -95.41940 | 22995 ft | 446 kts | 280° |
| 2026-04-19 23:04 | 18.24853 | -95.45173 | 23508 ft | 450 kts | 280° |
| 2026-04-19 23:04 | 18.25391 | -95.48415 | 24044 ft | 453 kts | 280° |
| 2026-04-19 23:04 | 18.25936 | -95.51706 | 24574 ft | 456 kts | 280° |
| 2026-04-19 23:05 | 18.26476 | -95.54969 | 25142 ft | 458 kts | 280° |
| 2026-04-19 23:05 | 18.27025 | -95.58287 | 25658 ft | 460 kts | 280° |
| 2026-04-19 23:05 | 18.27562 | -95.61546 | 26486 ft | 455 kts | 280° |
| 2026-04-19 23:05 | 18.28100 | -95.64811 | 27269 ft | 451 kts | 279° |
| 2026-04-19 23:06 | 18.28637 | -95.68073 | 27745 ft | 454 kts | 279° |
| 2026-04-19 23:06 | 18.29171 | -95.71330 | 28222 ft | 456 kts | 279° |
| 2026-04-19 23:06 | 18.29710 | -95.74619 | 28912 ft | 453 kts | 279° |
| 2026-04-19 23:06 | 18.30238 | -95.77841 | 29666 ft | 449 kts | 279° |
| 2026-04-19 23:07 | 18.30761 | -95.81029 | 30354 ft | 445 kts | 279° |
| 2026-04-19 23:07 | 18.31281 | -95.84214 | 30932 ft | 444 kts | 279° |
| 2026-04-19 23:07 | 18.31805 | -95.87440 | 31491 ft | 443 kts | 278° |
| 2026-04-19 23:07 | 18.32315 | -95.90585 | 32095 ft | 440 kts | 278° |
| 2026-04-19 23:08 | 18.32831 | -95.93774 | 32672 ft | 437 kts | 278° |
| 2026-04-19 23:08 | 18.33346 | -95.96949 | 33205 ft | 436 kts | 278° |
| 2026-04-19 23:08 | 18.33854 | -96.00074 | 33758 ft | 435 kts | 278° |
| 2026-04-19 23:08 | 18.34365 | -96.03217 | 33999 ft | 439 kts | 279° |
| 2026-04-19 23:09 | 18.35393 | -96.09562 | 34017 ft | 435 kts | 278° |
| 2026-04-19 23:09 | 18.36405 | -96.15831 | 34028 ft | 436 kts | 278° |
| 2026-04-19 23:10 | 18.37417 | -96.22096 | 34035 ft | 436 kts | 278° |
| 2026-04-19 23:10 | 18.38427 | -96.28371 | 34035 ft | 435 kts | 278° |
| 2026-04-19 23:11 | 18.39427 | -96.34596 | 34052 ft | 434 kts | 278° |
| 2026-04-19 23:11 | 18.40430 | -96.40878 | 34058 ft | 434 kts | 278° |
| 2026-04-19 23:12 | 18.41426 | -96.47102 | 34074 ft | 434 kts | 278° |
| 2026-04-19 23:12 | 18.42429 | -96.53392 | 34094 ft | 435 kts | 278° |
| 2026-04-19 23:13 | 18.43426 | -96.59654 | 34101 ft | 434 kts | 278° |
| 2026-04-19 23:13 | 18.44419 | -96.65897 | 34106 ft | 435 kts | 278° |
| 2026-04-19 23:14 | 18.45412 | -96.72186 | 34108 ft | 434 kts | 278° |
| 2026-04-19 23:14 | 18.46398 | -96.78426 | 34137 ft | 433 kts | 278° |
| 2026-04-19 23:15 | 18.47385 | -96.84679 | 34216 ft | 433 kts | 278° |
| 2026-04-19 23:15 | 18.48361 | -96.90884 | 34270 ft | 432 kts | 278° |
| 2026-04-19 23:16 | 18.49345 | -96.97141 | 34320 ft | 431 kts | 278° |
| 2026-04-19 23:16 | 18.50319 | -97.03349 | 34371 ft | 432 kts | 277° |
| 2026-04-19 23:17 | 18.51296 | -97.09597 | 34378 ft | 433 kts | 277° |
| 2026-04-19 23:17 | 18.52265 | -97.15826 | 34379 ft | 432 kts | 277° |
| 2026-04-19 23:18 | 18.53236 | -97.22060 | 34379 ft | 433 kts | 277° |
| 2026-04-19 23:18 | 18.54209 | -97.28327 | 34376 ft | 432 kts | 277° |
| 2026-04-19 23:19 | 18.55174 | -97.34564 | 34355 ft | 431 kts | 278° |
| 2026-04-19 23:19 | 18.56136 | -97.40781 | 34341 ft | 431 kts | 278° |
| 2026-04-19 23:20 | 18.57093 | -97.46991 | 34332 ft | 431 kts | 277° |
| 2026-04-19 23:20 | 18.58050 | -97.53223 | 34333 ft | 431 kts | 278° |
| 2026-04-19 23:21 | 18.59007 | -97.59451 | 34346 ft | 431 kts | 277° |
| 2026-04-19 23:21 | 18.59968 | -97.65713 | 34352 ft | 430 kts | 277° |
| 2026-04-19 23:22 | 18.60954 | -97.71898 | 34354 ft | 431 kts | 278° |
| 2026-04-19 23:22 | 18.62052 | -97.78110 | 34348 ft | 431 kts | 278° |
| 2026-04-19 23:23 | 18.63163 | -97.84299 | 34347 ft | 430 kts | 279° |
| 2026-04-19 23:23 | 18.64269 | -97.90501 | 34330 ft | 431 kts | 279° |
| 2026-04-19 23:24 | 18.65361 | -97.96696 | 34325 ft | 430 kts | 278° |
| 2026-04-19 23:24 | 18.66447 | -98.02891 | 34315 ft | 430 kts | 278° |
| 2026-04-19 23:25 | 18.67508 | -98.08950 | 33907 ft | 415 kts | 278° |
| 2026-04-19 23:25 | 18.68023 | -98.11916 | 33129 ft | 418 kts | 279° |
| 2026-04-19 23:25 | 18.68550 | -98.14966 | 32321 ft | 422 kts | 279° |
| 2026-04-19 23:26 | 18.69077 | -98.18011 | 31535 ft | 425 kts | 279° |
| 2026-04-19 23:26 | 18.69600 | -98.21041 | 30757 ft | 427 kts | 279° |
| 2026-04-19 23:26 | 18.70135 | -98.24142 | 29971 ft | 430 kts | 279° |
| 2026-04-19 23:26 | 18.70671 | -98.27241 | 29195 ft | 431 kts | 279° |
| 2026-04-19 23:27 | 18.71205 | -98.30323 | 28436 ft | 433 kts | 279° |
| 2026-04-19 23:27 | 18.71742 | -98.33424 | 27686 ft | 434 kts | 279° |
| 2026-04-19 23:27 | 18.72295 | -98.36552 | 26933 ft | 435 kts | 279° |
| 2026-04-19 23:27 | 18.72859 | -98.39651 | 26440 ft | 430 kts | 279° |
| 2026-04-19 23:28 | 18.73424 | -98.42709 | 26307 ft | 416 kts | 280° |
| 2026-04-19 23:28 | 18.73971 | -98.45648 | 26153 ft | 404 kts | 280° |
| 2026-04-19 23:28 | 18.74505 | -98.48533 | 25610 ft | 403 kts | 280° |
| 2026-04-19 23:28 | 18.75042 | -98.51447 | 25032 ft | 403 kts | 280° |
| 2026-04-19 23:29 | 18.75565 | -98.54303 | 24573 ft | 399 kts | 280° |
| 2026-04-19 23:29 | 18.76091 | -98.57187 | 23995 ft | 399 kts | 280° |
| 2026-04-19 23:29 | 18.76613 | -98.60054 | 23483 ft | 397 kts | 280° |
| 2026-04-19 23:29 | 18.77126 | -98.62868 | 22962 ft | 395 kts | 280° |
| 2026-04-19 23:30 | 18.77643 | -98.65710 | 22455 ft | 393 kts | 279° |
| 2026-04-19 23:30 | 18.78157 | -98.68535 | 21948 ft | 392 kts | 279° |
| 2026-04-19 23:30 | 18.78668 | -98.71355 | 21505 ft | 389 kts | 279° |
| 2026-04-19 23:30 | 18.79173 | -98.74145 | 21048 ft | 386 kts | 279° |
| 2026-04-19 23:31 | 18.79671 | -98.76893 | 20579 ft | 385 kts | 280° |
| 2026-04-19 23:31 | 18.80171 | -98.79652 | 20089 ft | 383 kts | 280° |
| 2026-04-19 23:31 | 18.80674 | -98.82393 | 19591 ft | 382 kts | 281° |
| 2026-04-19 23:31 | 18.81220 | -98.85123 | 19117 ft | 380 kts | 282° |
| 2026-04-19 23:32 | 18.81799 | -98.87844 | 18603 ft | 380 kts | 282° |
| 2026-04-19 23:32 | 18.82386 | -98.90539 | 18139 ft | 377 kts | 283° |
| 2026-04-19 23:32 | 18.82973 | -98.93235 | 17697 ft | 374 kts | 283° |
| 2026-04-19 23:32 | 18.83547 | -98.95887 | 17302 ft | 368 kts | 283° |
| 2026-04-19 23:33 | 18.84100 | -98.98475 | 17105 ft | 357 kts | 283° |
| 2026-04-19 23:33 | 18.84851 | -99.00940 | 16919 ft | 346 kts | 299° |
| 2026-04-19 23:33 | 18.86365 | -99.02815 | 16757 ft | 333 kts | 325° |
| 2026-04-19 23:33 | 18.88410 | -99.03869 | 16470 ft | 325 kts | 347° |
| 2026-04-19 23:34 | 18.90648 | -99.04107 | 16018 ft | 324 kts | 3° |
| 2026-04-19 23:34 | 18.92882 | -99.03919 | 15742 ft | 319 kts | 8° |
| 2026-04-19 23:34 | 18.95072 | -99.03633 | 15534 ft | 321 kts | 8° |
| 2026-04-19 23:34 | 18.97308 | -99.03341 | 15322 ft | 321 kts | 8° |
| 2026-04-19 23:35 | 18.99550 | -99.03075 | 15108 ft | 321 kts | 7° |
| 2026-04-19 23:35 | 19.01766 | -99.02836 | 14894 ft | 320 kts | 6° |
| 2026-04-19 23:35 | 19.03990 | -99.02612 | 14668 ft | 320 kts | 6° |
| 2026-04-19 23:35 | 19.06208 | -99.02387 | 14444 ft | 319 kts | 6° |
| 2026-04-19 23:36 | 19.08391 | -99.02161 | 14228 ft | 313 kts | 7° |
| 2026-04-19 23:36 | 19.10528 | -99.01940 | 14043 ft | 305 kts | 6° |
| 2026-04-19 23:36 | 19.12618 | -99.01724 | 14000 ft | 292 kts | 7° |
| 2026-04-19 23:36 | 19.14596 | -99.01524 | 13982 ft | 278 kts | 7° |
| 2026-04-19 23:37 | 19.16484 | -99.01408 | 14002 ft | 266 kts | 0° |
| 2026-04-19 23:37 | 19.18331 | -99.01739 | 13916 ft | 269 kts | 337° |
| 2026-04-19 23:37 | 19.19862 | -99.02856 | 13662 ft | 273 kts | 316° |
| 2026-04-19 23:37 | 19.21179 | -99.04302 | 13351 ft | 270 kts | 312° |
| 2026-04-19 23:38 | 19.22451 | -99.05727 | 13043 ft | 267 kts | 314° |
| 2026-04-19 23:38 | 19.23770 | -99.07127 | 12728 ft | 265 kts | 314° |
| 2026-04-19 23:38 | 19.24969 | -99.08593 | 12456 ft | 261 kts | 309° |
| 2026-04-19 23:38 | 19.26071 | -99.10088 | 12167 ft | 258 kts | 307° |
| 2026-04-19 23:39 | 19.27155 | -99.11600 | 11865 ft | 255 kts | 308° |
| 2026-04-19 23:39 | 19.28219 | -99.13085 | 11572 ft | 252 kts | 308° |
| 2026-04-19 23:39 | 19.29263 | -99.14534 | 11266 ft | 249 kts | 308° |
| 2026-04-19 23:39 | 19.30320 | -99.15999 | 10954 ft | 247 kts | 308° |
| 2026-04-19 23:40 | 19.31348 | -99.17422 | 10719 ft | 242 kts | 309° |
| 2026-04-19 23:40 | 19.32473 | -99.18741 | 10481 ft | 236 kts | 322° |
| 2026-04-19 23:40 | 19.33889 | -99.19486 | 10215 ft | 229 kts | 354° |
| 2026-04-19 23:40 | 19.35425 | -99.19340 | 9938 ft | 218 kts | 21° |
| 2026-04-19 23:41 | 19.36745 | -99.18632 | 9611 ft | 203 kts | 39° |
| 2026-04-19 23:41 | 19.37324 | -99.18030 | 9435 ft | 196 kts | 54° |
| 2026-04-19 23:41 | 19.38029 | -99.16867 | 9230 ft | 177 kts | 59° |
| 2026-04-19 23:41 | 19.38621 | -99.15781 | 8930 ft | 166 kts | 58° |
| 2026-04-19 23:42 | 19.39216 | -99.14732 | 8758 ft | 166 kts | 58° |
| 2026-04-19 23:42 | 19.39801 | -99.13676 | 8461 ft | 164 kts | 58° |
| 2026-04-19 23:42 | 19.40366 | -99.12669 | 8189 ft | 160 kts | 56° |
| 2026-04-19 23:42 | 19.40938 | -99.11664 | 7985 ft | 159 kts | 56° |
| 2026-04-19 23:43 | 19.41513 | -99.10653 | 7801 ft | 160 kts | 56° |
| 2026-04-19 23:43 | 19.42093 | -99.09640 | 7617 ft | 159 kts | 56° |
| 2026-04-19 23:43 | 19.42663 | -99.08647 | 7427 ft | 159 kts | 56° |
| 2026-04-19 23:43 | 19.43213 | -99.07677 | 7351 ft | 132 kts | 56° |
| 2026-04-19 23:44 | 19.43569 | -99.07053 | 7341 ft | 68 kts | 58° |
| 2026-04-19 23:44 | 19.43766 | -99.06703 | 7341 ft | 30 kts | 60° |
| 2026-04-19 23:44 | 19.43751 | -99.06609 | 7338 ft | 11 kts | 155° |